Main page
METAR-TAF:

METAR-TAF

Airports :

Hof–Plauen Airport

Hof, Germany

latitude: 50-19N, longitude: 011-53E, elevation: 567 m

Current weather observation

The report was made 36 minutes ago, at 00:50 UTC
Wind 3 kt from the Northeast, varying between North and East
Temperature 13°C
Humidity 82%
Pressure 1019 hPa
Visibility 10 km or more

METAR: EDQM 250050Z AUTO 04003KT 350V080 9999 // NCD 13/10 Q1019

Time: 03:26 (01:26 UTC)

Forecast

The report was made 8 hours and 26 minutes ago, at 17:00 UTC
Forecast valid from 24 at 18 UTC to 25 at 03 UTC
Wind 8 kt from the North/Northeast
Visibility 10 km or more
no clouds below 1500 m and no cumulonimbus
Becoming
from 24 at 19 UTC to 24 at 21 UTC
Wind 3 kt from variable directions

TAF: EDQM 241700Z 2418/2503 03008KT CAVOK BECMG 2419/2421 VRB03KT

Weather observations and forecasts of more than 4000 airports (METAR and TAF reports).

The available stations are represented by yellow and red dots on the map.

Hover mouse over dot to see the name of the station.

Then click to see weather observations and forecasts.

To change the map : click on the green buttons with a black cross to zoom in, on the green button with a dash to zoom out, or on the green arrows for adjacent maps.


METAR-TAF: